createdAt,value
2019-02-15T00:02:13.927Z,74.30
2019-02-15T00:05:29.418Z,75.10
2019-02-15T00:07:56.118Z,74.80
2019-02-15T00:10:23.203Z,75.00
2019-02-15T00:12:50.197Z,74.40
2019-02-15T00:15:17.421Z,74.80
2019-02-15T00:18:08.780Z,74.30
2019-02-15T00:20:38.680Z,75.90
2019-02-15T00:23:05.921Z,74.80
2019-02-15T00:25:32.960Z,75.00
2019-02-15T00:27:59.937Z,75.50
2019-02-15T00:30:26.954Z,76.00
2019-02-15T00:32:53.957Z,77.00
2019-02-15T00:35:20.880Z,77.00
2019-02-15T00:37:47.828Z,76.40
2019-02-15T00:40:16.509Z,76.40
2019-02-15T00:42:43.701Z,76.90
2019-02-15T00:45:10.916Z,75.70
2019-02-15T00:47:41.296Z,76.90
2019-02-15T00:50:14.372Z,77.00
2019-02-15T00:52:46.856Z,75.80
2019-02-15T00:55:25.936Z,78.70
2019-02-15T00:57:58.785Z,78.60
2019-02-15T01:00:50.852Z,77.60
2019-02-15T01:03:32.105Z,77.50
2019-02-15T01:06:14.706Z,77.30
2019-02-15T01:09:02.416Z,78.20
2019-02-15T01:11:33.754Z,78.10
2019-02-15T01:14:00.881Z,78.00
2019-02-15T01:16:27.908Z,79.50
2019-02-15T01:18:54.993Z,78.40
2019-02-15T01:21:22.052Z,80.20
2019-02-15T01:23:49.062Z,78.90
2019-02-15T01:26:21.213Z,78.50
2019-02-15T01:28:57.693Z,78.40
2019-02-15T01:31:44.250Z,79.00
2019-02-15T01:34:36.964Z,79.20
2019-02-15T01:37:12.469Z,79.70
2019-02-15T01:39:45.676Z,79.70
2019-02-15T01:42:25.254Z,79.90
2019-02-15T01:45:00.048Z,79.60
2019-02-15T01:47:30.866Z,79.50
2019-02-15T01:49:57.817Z,79.40
2019-02-15T01:52:24.786Z,79.90
2019-02-15T01:54:51.812Z,79.30
2019-02-15T01:57:18.760Z,80.20
2019-02-15T01:59:45.736Z,81.50
2019-02-15T02:02:12.727Z,80.90
2019-02-15T02:04:39.716Z,81.00
2019-02-15T02:07:06.674Z,80.80
2019-02-15T02:09:33.651Z,81.90
2019-02-15T02:12:00.615Z,81.40
2019-02-15T02:14:27.605Z,80.80
2019-02-15T02:23:38.358Z,82.20
2019-02-15T02:26:05.393Z,82.70
2019-02-15T02:28:32.356Z,82.20
2019-02-15T02:30:59.317Z,81.80
2019-02-15T02:33:26.368Z,83.10
2019-02-15T02:35:53.345Z,84.00
2019-02-15T02:38:20.393Z,83.40
2019-02-15T02:40:47.404Z,82.30
2019-02-15T02:43:14.528Z,82.20
2019-02-15T02:45:41.464Z,82.70
2019-02-15T02:48:08.438Z,83.60
2019-02-15T02:50:35.561Z,82.80
2019-02-15T02:53:02.424Z,83.40
2019-02-15T02:55:29.396Z,83.00
2019-02-15T02:57:56.405Z,82.60
2019-02-15T03:00:32.964Z,83.50
2019-02-15T03:02:50.341Z,84.20
2019-02-15T03:05:17.602Z,83.80
2019-02-15T03:07:44.790Z,83.80
2019-02-15T03:10:11.807Z,82.40
2019-02-15T03:12:38.799Z,83.30
2019-02-15T03:15:06.209Z,83.80
2019-02-15T03:17:33.260Z,84.20
2019-02-15T03:20:00.314Z,83.80
2019-02-15T03:22:27.475Z,83.70
2019-02-15T03:24:54.466Z,83.20
2019-02-15T03:27:21.597Z,84.60
2019-02-15T03:29:48.589Z,83.50
2019-02-15T03:32:15.625Z,83.30
2019-02-15T03:34:42.618Z,83.90
2019-02-15T03:37:31.168Z,83.90
2019-02-15T03:40:04.093Z,84.10
2019-02-15T03:42:31.056Z,83.80
2019-02-15T03:44:59.350Z,83.70
2019-02-15T03:47:27.332Z,84.90
2019-02-15T03:49:54.295Z,84.20
2019-02-15T03:52:21.230Z,83.90
2019-02-15T03:54:48.172Z,83.80
2019-02-15T03:57:15.198Z,83.00
2019-02-15T03:59:42.181Z,83.00
2019-02-15T04:02:09.153Z,83.30
2019-02-15T04:04:36.099Z,82.80
2019-02-15T04:07:03.073Z,83.00
2019-02-15T04:09:30.043Z,82.60
2019-02-15T04:11:57.036Z,82.90
2019-02-15T04:14:32.635Z,83.30
2019-02-15T04:16:51.086Z,83.80
2019-02-15T04:19:18.121Z,84.20
2019-02-15T04:21:45.221Z,83.50
2019-02-15T04:24:13.564Z,81.60
2019-02-15T04:26:39.250Z,82.90
2019-02-15T04:29:06.235Z,81.70
2019-02-15T04:31:33.241Z,83.00
2019-02-15T04:34:00.210Z,83.20
2019-02-15T04:36:27.467Z,82.60
2019-02-15T04:38:54.636Z,84.60
2019-02-15T04:41:21.802Z,84.60
2019-02-15T04:43:48.864Z,83.80
2019-02-15T04:46:17.127Z,84.10
2019-02-15T04:48:44.154Z,84.20
2019-02-15T04:51:11.262Z,84.20
2019-02-15T04:53:38.330Z,84.30
2019-02-15T04:56:05.461Z,84.30
2019-02-15T04:58:32.432Z,85.30
2019-02-15T05:00:59.393Z,84.60
2019-02-15T05:03:26.374Z,85.00
2019-02-15T05:05:53.316Z,84.10
2019-02-15T05:08:20.421Z,83.70
2019-02-15T05:10:47.441Z,83.90
2019-02-15T05:13:14.508Z,84.10
2019-02-15T05:15:41.471Z,83.80
2019-02-15T05:18:08.433Z,83.40
2019-02-15T05:20:35.423Z,83.60
2019-02-15T05:23:02.408Z,83.50
2019-02-15T05:25:29.492Z,83.70
2019-02-15T05:27:56.640Z,84.00
2019-02-15T05:30:23.755Z,84.60
2019-02-15T05:32:50.822Z,85.10
2019-02-15T05:35:17.951Z,83.70
2019-02-15T05:37:44.936Z,85.90
2019-02-15T05:40:11.920Z,84.60
2019-02-15T05:42:38.936Z,85.50
2019-02-15T05:45:26.950Z,84.50
2019-02-15T05:47:54.478Z,84.90
2019-02-15T05:50:21.448Z,84.40
2019-02-15T05:52:48.487Z,84.70
2019-02-15T05:55:15.481Z,84.60
2019-02-15T05:57:42.490Z,84.60
2019-02-15T06:00:09.524Z,85.00
2019-02-15T06:02:36.524Z,85.00
2019-02-15T06:05:03.683Z,85.50
2019-02-15T06:07:30.694Z,85.40
2019-02-15T06:09:59.175Z,85.00
2019-02-15T06:12:26.201Z,85.70
2019-02-15T06:14:53.329Z,84.70
2019-02-15T06:17:21.271Z,84.80
2019-02-15T06:19:48.371Z,86.30
2019-02-15T06:22:15.930Z,84.70
2019-02-15T06:24:42.997Z,84.80
2019-02-15T06:27:10.453Z,86.00
2019-02-15T06:29:37.558Z,85.00
2019-02-15T06:32:04.796Z,85.70
2019-02-15T06:34:31.968Z,85.90
2019-02-15T06:36:59.130Z,84.70
2019-02-15T06:39:26.184Z,86.30
2019-02-15T06:41:53.255Z,85.20
2019-02-15T06:44:21.201Z,85.40
2019-02-15T06:46:48.432Z,85.60
2019-02-15T06:49:15.649Z,85.70
2019-02-15T06:51:42.672Z,86.40
2019-02-15T06:54:09.646Z,86.00
2019-02-15T06:56:36.602Z,86.30
2019-02-15T06:59:09.225Z,86.20
2019-02-15T07:01:41.466Z,86.20
2019-02-15T07:04:18.405Z,86.30
2019-02-15T07:06:45.393Z,86.50
2019-02-15T07:09:12.336Z,86.60
2019-02-15T07:11:39.333Z,87.00
2019-02-15T07:14:06.285Z,86.70
2019-02-15T07:16:33.237Z,86.50
2019-02-15T07:19:00.208Z,86.40
2019-02-15T07:21:27.237Z,86.20
2019-02-15T07:23:54.151Z,86.10
2019-02-15T07:26:21.308Z,86.10
2019-02-15T07:28:48.274Z,86.40
2019-02-15T07:31:15.235Z,86.90
2019-02-15T07:33:42.200Z,85.40
2019-02-15T07:36:09.187Z,85.20
2019-02-15T07:38:36.149Z,84.70
2019-02-15T07:41:03.121Z,84.30
2019-02-15T07:43:30.137Z,83.80
2019-02-15T07:45:57.134Z,84.60
2019-02-15T07:48:24.029Z,83.80
2019-02-15T07:50:51.467Z,83.50
2019-02-15T07:53:18.424Z,84.50
2019-02-15T07:55:45.374Z,83.20
2019-02-15T07:58:12.349Z,82.30
2019-02-15T08:00:39.332Z,81.50
2019-02-15T08:03:06.261Z,80.30
2019-02-15T08:05:33.249Z,79.40
2019-02-15T08:08:00.205Z,78.30
2019-02-15T08:10:27.177Z,77.60
2019-02-15T08:12:54.164Z,77.40
2019-02-15T08:15:21.105Z,76.70
2019-02-15T08:17:48.066Z,76.30
2019-02-15T08:20:15.240Z,75.20
2019-02-15T08:22:42.265Z,74.30
2019-02-15T08:25:09.205Z,73.40
2019-02-15T08:27:36.178Z,72.50
2019-02-15T08:30:03.132Z,72.40
2019-02-15T08:32:30.104Z,72.00
2019-02-15T08:34:57.164Z,71.50
2019-02-15T08:37:24.364Z,71.50
2019-02-15T08:39:51.471Z,70.40
2019-02-15T08:42:18.453Z,69.40
2019-02-15T08:44:45.388Z,68.10
2019-02-15T08:47:12.340Z,68.70
2019-02-15T08:49:41.426Z,66.00
2019-02-15T08:52:13.149Z,65.90
2019-02-15T08:54:39.955Z,64.90
2019-02-15T08:57:06.937Z,63.40
2019-02-15T08:59:33.952Z,60.00
2019-02-15T09:02:20.988Z,58.20
2019-02-15T09:04:48.051Z,56.20
2019-02-15T09:07:14.852Z,52.40
2019-02-15T09:09:41.849Z,49.60
2019-02-15T09:12:08.817Z,46.50
2019-02-15T09:14:35.764Z,44.20
2019-02-15T09:17:02.732Z,43.40
2019-02-15T09:19:32.128Z,42.20
2019-02-15T09:22:00.041Z,41.60
2019-02-15T09:24:27.823Z,39.00
2019-02-15T09:26:54.804Z,38.10
2019-02-15T09:29:21.737Z,36.40
2019-02-15T09:31:48.756Z,35.20
2019-02-15T09:34:15.711Z,34.30
2019-02-15T09:36:42.697Z,33.70
2019-02-15T09:39:09.668Z,32.00
2019-02-15T09:41:36.649Z,32.00
2019-02-15T09:44:03.651Z,31.50
2019-02-15T09:46:30.600Z,30.80
2019-02-15T09:48:57.540Z,30.40
2019-02-15T09:51:24.497Z,29.80
2019-02-15T09:53:52.031Z,29.10
2019-02-15T09:56:19.033Z,28.70
2019-02-15T09:58:45.989Z,27.80
2019-02-15T10:01:13.023Z,26.60
2019-02-15T10:03:39.986Z,25.60
2019-02-15T10:06:06.976Z,26.30
2019-02-15T10:08:34.140Z,26.80
2019-02-15T10:11:01.084Z,27.00
2019-02-15T10:13:28.043Z,27.80
2019-02-15T10:15:55.064Z,27.00
2019-02-15T10:18:22.008Z,26.10
2019-02-15T10:20:48.995Z,25.70
2019-02-15T10:23:15.989Z,25.70
2019-02-15T10:25:42.938Z,24.60
2019-02-15T10:28:09.892Z,24.30
2019-02-15T10:30:36.880Z,24.20
2019-02-15T10:33:03.882Z,24.00
2019-02-15T10:35:30.830Z,23.80
2019-02-15T10:37:57.915Z,23.10
2019-02-15T10:40:24.929Z,22.70
2019-02-15T10:42:51.947Z,23.30
2019-02-15T10:45:18.927Z,23.20
2019-02-15T10:47:45.900Z,23.00
2019-02-15T10:50:12.872Z,22.20
2019-02-15T10:52:39.834Z,21.60
2019-02-15T10:55:07.559Z,21.40
2019-02-15T10:57:34.647Z,21.30
2019-02-15T11:00:01.603Z,21.20
2019-02-15T11:02:28.536Z,20.80
2019-02-15T11:04:55.506Z,19.80
2019-02-15T11:07:22.498Z,20.30
2019-02-15T11:09:49.445Z,20.20
2019-02-15T11:12:16.396Z,20.60
2019-02-15T11:14:43.357Z,20.70
2019-02-15T11:17:10.301Z,20.00
2019-02-15T11:19:37.267Z,19.90
2019-02-15T11:22:04.216Z,19.60
2019-02-15T11:24:31.184Z,19.80
2019-02-15T11:26:58.118Z,19.40
2019-02-15T11:29:25.103Z,18.80
2019-02-15T11:31:52.063Z,19.30
2019-02-15T11:34:19.000Z,19.40
2019-02-15T11:36:45.981Z,18.50
2019-02-15T11:39:13.811Z,18.10
2019-02-15T11:41:40.731Z,18.80
2019-02-15T11:44:07.715Z,18.30
2019-02-15T11:46:34.932Z,17.60
2019-02-15T11:49:01.887Z,17.70
2019-02-15T11:51:28.845Z,17.50
2019-02-15T11:53:55.779Z,17.60
2019-02-15T11:56:22.856Z,17.40
2019-02-15T11:58:49.843Z,17.10
2019-02-15T12:01:16.818Z,17.10
2019-02-15T12:03:43.760Z,17.20
2019-02-15T12:06:10.737Z,17.10
2019-02-15T12:08:37.673Z,17.30
2019-02-15T12:11:04.596Z,17.50
2019-02-15T12:13:31.543Z,17.20
2019-02-15T12:15:58.504Z,16.90
2019-02-15T12:18:25.447Z,16.70
2019-02-15T12:20:52.400Z,16.80
2019-02-15T12:23:19.343Z,16.90
2019-02-15T12:25:46.334Z,16.40
2019-02-15T12:28:13.264Z,17.00
2019-02-15T12:30:40.217Z,16.40
2019-02-15T12:33:07.156Z,16.70
2019-02-15T12:35:34.117Z,16.90
2019-02-15T12:38:01.074Z,17.00
2019-02-15T12:40:28.012Z,17.20
2019-02-15T12:42:54.971Z,17.70
2019-02-15T12:45:21.960Z,17.80
2019-02-15T12:47:49.045Z,18.20
2019-02-15T12:50:16.017Z,17.60
2019-02-15T12:52:42.978Z,18.60
2019-02-15T12:55:10.028Z,19.40
2019-02-15T12:57:38.098Z,19.80
2019-02-15T13:00:07.364Z,20.50
2019-02-15T13:02:35.711Z,20.30
2019-02-15T13:05:02.789Z,21.30
2019-02-15T13:07:31.755Z,22.30
2019-02-15T13:09:58.173Z,22.90
2019-02-15T13:12:25.301Z,23.30
2019-02-15T13:14:52.410Z,23.70
2019-02-15T13:17:24.698Z,24.10
2019-02-15T13:19:46.494Z,24.80
2019-02-15T13:22:13.912Z,25.50
2019-02-15T13:24:40.423Z,25.20
2019-02-15T13:27:07.422Z,25.40
2019-02-15T13:29:34.380Z,25.40
2019-02-15T13:32:01.377Z,25.80
2019-02-15T13:34:28.324Z,25.50
2019-02-15T13:36:55.291Z,25.90
2019-02-15T13:39:22.228Z,26.10
2019-02-15T13:41:49.224Z,26.00
2019-02-15T13:44:17.835Z,26.20
2019-02-15T13:46:43.124Z,25.60
2019-02-15T13:49:10.096Z,26.40
2019-02-15T13:51:37.048Z,26.80
2019-02-15T13:54:04.040Z,27.60
2019-02-15T13:56:31.011Z,27.70
2019-02-15T13:58:59.247Z,27.00
2019-02-15T14:01:26.199Z,27.40
2019-02-15T14:03:53.170Z,27.40
2019-02-15T14:06:20.163Z,27.50
2019-02-15T14:08:47.129Z,27.30
2019-02-15T14:11:14.110Z,27.70
2019-02-15T14:13:41.074Z,27.80
2019-02-15T14:16:08.027Z,27.80
2019-02-15T14:18:34.994Z,27.80
2019-02-15T14:21:02.072Z,28.20
2019-02-15T14:23:29.048Z,28.80
2019-02-15T14:25:56.216Z,28.10
2019-02-15T14:28:23.164Z,28.20
2019-02-15T14:30:50.184Z,28.20
2019-02-15T14:33:17.791Z,28.60
2019-02-15T14:35:45.797Z,28.60
2019-02-15T14:38:13.687Z,29.10
2019-02-15T14:40:40.757Z,28.80
2019-02-15T14:43:07.736Z,28.70
2019-02-15T14:45:35.292Z,28.60
2019-02-15T14:48:02.377Z,28.60
2019-02-15T14:50:29.356Z,29.10
2019-02-15T14:52:56.481Z,28.60
2019-02-15T14:55:23.616Z,29.30
2019-02-15T14:57:50.565Z,29.50
2019-02-15T15:00:17.946Z,29.30
2019-02-15T15:02:44.900Z,29.10
2019-02-15T15:05:12.091Z,29.70
2019-02-15T15:07:39.043Z,29.40
2019-02-15T15:10:06.777Z,29.90
2019-02-15T15:12:33.779Z,29.60
2019-02-15T15:15:00.738Z,29.40
2019-02-15T15:17:27.701Z,29.40
2019-02-15T15:19:54.642Z,29.80
2019-02-15T15:22:21.605Z,30.40
2019-02-15T15:24:48.528Z,30.50
2019-02-15T15:27:15.508Z,30.70
2019-02-15T15:29:42.499Z,31.00
2019-02-15T15:32:09.447Z,31.20
2019-02-15T15:34:36.396Z,31.40
2019-02-15T15:37:03.355Z,31.20
2019-02-15T15:39:30.408Z,31.40
2019-02-15T15:41:57.652Z,31.60
2019-02-15T15:44:24.399Z,32.00
2019-02-15T15:46:51.397Z,32.00
2019-02-15T15:49:18.350Z,32.00
2019-02-15T15:51:45.367Z,32.30
2019-02-15T15:54:12.350Z,31.90
2019-02-15T15:56:39.304Z,32.20
2019-02-15T15:59:06.386Z,32.40
2019-02-15T16:01:33.672Z,32.50
2019-02-15T16:04:00.632Z,32.90
2019-02-15T16:06:27.615Z,33.30
2019-02-15T16:08:54.655Z,33.20
2019-02-15T16:11:21.656Z,33.40
2019-02-15T16:13:48.626Z,33.60
2019-02-15T16:16:15.611Z,33.80
2019-02-15T16:18:42.674Z,34.00
2019-02-15T16:21:09.621Z,34.30
2019-02-15T16:23:36.727Z,34.50
2019-02-15T16:26:03.696Z,34.90
2019-02-15T16:28:30.647Z,35.20
2019-02-15T16:30:57.641Z,35.10
2019-02-15T16:33:24.608Z,35.30
2019-02-15T16:35:51.589Z,35.70
2019-02-15T16:38:18.620Z,35.90
2019-02-15T16:40:45.594Z,36.00
2019-02-15T16:43:12.535Z,36.40
2019-02-15T16:45:39.496Z,36.60
2019-02-15T16:48:06.464Z,36.80
2019-02-15T16:50:33.399Z,36.90
2019-02-15T16:53:00.351Z,37.10
2019-02-15T16:55:27.321Z,37.20
2019-02-15T16:57:54.276Z,37.40
2019-02-15T17:00:21.241Z,37.70
2019-02-15T17:02:48.762Z,38.60
2019-02-15T17:05:15.704Z,38.00
2019-02-15T17:07:42.687Z,38.60
2019-02-15T17:10:09.643Z,39.10
2019-02-15T17:12:36.572Z,39.00
2019-02-15T17:15:03.662Z,40.10
2019-02-15T17:17:30.640Z,39.90
2019-02-15T17:19:57.587Z,40.00
2019-02-15T17:22:24.544Z,40.90
2019-02-15T17:24:51.495Z,40.90
2019-02-15T17:27:18.562Z,41.50
2019-02-15T17:29:45.500Z,41.60
2019-02-15T17:32:12.437Z,41.90
2019-02-15T17:34:39.408Z,42.00
2019-02-15T17:37:06.661Z,42.30
2019-02-15T17:39:33.400Z,42.70
2019-02-15T17:42:00.337Z,43.10
2019-02-15T17:44:27.325Z,43.30
2019-02-15T17:46:54.298Z,43.70
2019-02-15T17:49:21.242Z,44.00
2019-02-15T17:51:48.194Z,44.00
2019-02-15T17:54:15.131Z,44.80
2019-02-15T17:56:42.088Z,45.10
2019-02-15T17:59:09.057Z,44.90
2019-02-15T18:01:36.137Z,44.70
2019-02-15T18:04:03.801Z,44.70
2019-02-15T18:06:31.102Z,45.00
2019-02-15T18:08:58.165Z,45.70
2019-02-15T18:11:25.169Z,45.40
2019-02-15T18:13:52.152Z,46.40
2019-02-15T18:16:19.093Z,46.20
2019-02-15T18:18:46.031Z,47.00
2019-02-15T18:21:13.020Z,47.20
2019-02-15T18:23:39.972Z,47.40
2019-02-15T18:26:06.999Z,47.60
2019-02-15T18:28:34.012Z,47.80
2019-02-15T18:31:00.941Z,47.90
2019-02-15T18:33:27.944Z,47.90
2019-02-15T18:35:54.992Z,48.10
2019-02-15T18:38:21.909Z,48.30
2019-02-15T18:40:48.901Z,48.40
2019-02-15T18:43:15.889Z,48.70
2019-02-15T18:45:42.883Z,48.90
2019-02-15T18:48:09.847Z,49.40
2019-02-15T18:50:36.836Z,49.70
2019-02-15T18:53:03.817Z,50.40
2019-02-15T18:55:30.829Z,51.20
2019-02-15T18:57:57.826Z,51.90
2019-02-15T19:00:24.784Z,52.40
2019-02-15T19:02:51.745Z,52.10
2019-02-15T19:05:19.324Z,52.20
2019-02-15T19:07:46.381Z,52.00
2019-02-15T19:10:15.620Z,52.20
2019-02-15T19:12:42.631Z,52.10
2019-02-15T19:15:10.612Z,52.30
2019-02-15T19:17:37.559Z,53.00
2019-02-15T19:20:05.141Z,53.30
2019-02-15T19:22:32.136Z,53.70
2019-02-15T19:24:59.116Z,54.00
2019-02-15T19:27:26.101Z,54.20
2019-02-15T19:29:53.080Z,54.90
2019-02-15T19:32:20.049Z,55.10
2019-02-15T19:34:47.037Z,55.30
2019-02-15T19:37:14.009Z,55.60
2019-02-15T19:39:41.039Z,55.90
2019-02-15T19:42:13.098Z,56.80
2019-02-15T19:44:40.044Z,56.80
2019-02-15T19:47:07.018Z,57.20
2019-02-15T19:49:38.879Z,57.00
2019-02-15T19:52:00.943Z,57.50
2019-02-15T19:54:27.920Z,57.80
2019-02-15T19:56:54.927Z,58.10
2019-02-15T19:59:21.888Z,58.00
2019-02-15T20:01:48.838Z,58.00
2019-02-15T20:04:15.792Z,58.30
2019-02-15T20:06:44.283Z,58.50
2019-02-15T20:09:11.243Z,58.80
2019-02-15T20:11:38.257Z,59.20
2019-02-15T20:14:05.310Z,59.80
2019-02-15T20:16:32.281Z,60.10
2019-02-15T20:18:59.321Z,59.80
2019-02-15T20:21:26.319Z,60.20
2019-02-15T20:23:53.305Z,59.70
2019-02-15T20:26:20.291Z,60.30
2019-02-15T20:28:47.267Z,60.40
2019-02-15T20:31:14.245Z,60.80
2019-02-15T20:33:41.233Z,60.80
2019-02-15T20:36:08.239Z,60.80
2019-02-15T20:38:35.269Z,61.20
2019-02-15T20:41:02.265Z,62.00
2019-02-15T20:43:29.216Z,62.10
2019-02-15T20:45:56.188Z,61.90
2019-02-15T20:48:23.263Z,62.70
2019-02-15T20:50:50.356Z,63.00
2019-02-15T20:53:17.772Z,63.50
2019-02-15T20:55:44.812Z,63.80
2019-02-15T20:58:11.966Z,64.70
2019-02-15T21:00:38.954Z,65.30
2019-02-15T21:03:05.921Z,65.30
2019-02-15T21:05:32.912Z,65.50
2019-02-15T21:08:00.336Z,65.90
2019-02-15T21:10:27.324Z,65.90
2019-02-15T21:12:54.309Z,66.40
2019-02-15T21:15:21.300Z,66.20
2019-02-15T21:17:48.331Z,66.40
2019-02-15T21:20:15.284Z,66.80
2019-02-15T21:22:42.238Z,67.80
2019-02-15T21:25:10.421Z,67.20
2019-02-15T21:27:37.426Z,67.30
2019-02-15T21:30:05.613Z,67.30
2019-02-15T21:32:32.628Z,67.50
2019-02-15T21:34:59.916Z,67.90
2019-02-15T21:37:27.017Z,67.80
2019-02-15T21:39:53.985Z,67.50
2019-02-15T21:42:20.984Z,67.60
2019-02-15T21:44:47.932Z,67.90
2019-02-15T21:47:14.929Z,67.90
2019-02-15T21:49:41.961Z,68.00
2019-02-15T21:52:08.947Z,68.00
2019-02-15T21:54:35.964Z,67.70
2019-02-15T21:57:02.908Z,67.70
2019-02-15T21:59:29.869Z,67.70
2019-02-15T22:01:56.940Z,67.90
2019-02-15T22:04:23.923Z,68.40
2019-02-15T22:06:50.861Z,68.10
2019-02-15T22:09:18.159Z,68.90
2019-02-15T22:11:45.103Z,69.30
2019-02-15T22:14:12.048Z,69.50
2019-02-15T22:16:39.013Z,69.70
2019-02-15T22:19:05.963Z,69.70
2019-02-15T22:21:32.916Z,69.90
2019-02-15T22:23:59.883Z,69.80
2019-02-15T22:26:26.819Z,69.90
2019-02-15T22:28:53.760Z,69.80
2019-02-15T22:31:20.809Z,69.70
2019-02-15T22:33:47.760Z,69.80
2019-02-15T22:36:14.788Z,69.90
2019-02-15T22:38:41.769Z,69.80
2019-02-15T22:41:13.955Z,69.70
2019-02-15T22:43:41.836Z,69.60
2019-02-15T22:46:09.024Z,69.80
2019-02-15T22:48:35.992Z,70.40
2019-02-15T22:51:03.017Z,70.50
2019-02-15T22:53:30.161Z,70.80
2019-02-15T22:55:57.123Z,71.30
2019-02-15T22:58:24.129Z,71.80
2019-02-15T23:00:57.647Z,72.60
2019-02-15T23:03:25.505Z,72.70
2019-02-15T23:05:52.608Z,72.60
2019-02-15T23:08:19.684Z,73.00
2019-02-15T23:10:47.227Z,72.30
2019-02-15T23:13:14.358Z,71.40
2019-02-15T23:15:41.551Z,72.50
2019-02-15T23:18:08.540Z,72.60
2019-02-15T23:20:44.622Z,72.60
2019-02-15T23:23:02.697Z,73.40
2019-02-15T23:25:29.684Z,73.00
2019-02-15T23:27:56.771Z,73.40
2019-02-15T23:30:24.091Z,73.90
2019-02-15T23:32:51.285Z,74.20
2019-02-15T23:35:18.321Z,74.20
2019-02-15T23:37:45.312Z,74.10
2019-02-15T23:40:12.294Z,74.20
2019-02-15T23:42:39.298Z,74.10
2019-02-15T23:45:06.360Z,74.10
2019-02-15T23:47:33.421Z,73.90
2019-02-15T23:50:00.395Z,73.70
2019-02-15T23:52:27.418Z,73.50
2019-02-15T23:54:54.396Z,73.80
2019-02-15T23:57:21.489Z,74.50
2019-02-15T23:59:48.563Z,73.70
